sensor_id;sensor_type;location;lat;lon;timestamp;pressure;altitude;pressure_sealevel;temperature
5571;BMP180;2808;51.240;6.794;2023-04-30T00:00:29;101754.00;;;9.90
5571;BMP180;2808;51.240;6.794;2023-04-30T00:03:01;101757.00;;;9.80
5571;BMP180;2808;51.240;6.794;2023-04-30T00:05:36;101753.00;;;9.80
5571;BMP180;2808;51.240;6.794;2023-04-30T00:08:24;101755.00;;;9.70
5571;BMP180;2808;51.240;6.794;2023-04-30T00:11:11;101760.00;;;9.70
5571;BMP180;2808;51.240;6.794;2023-04-30T00:13:44;101769.00;;;9.60
5571;BMP180;2808;51.240;6.794;2023-04-30T00:16:15;101755.00;;;9.60
5571;BMP180;2808;51.240;6.794;2023-04-30T00:18:46;101758.00;;;9.60
5571;BMP180;2808;51.240;6.794;2023-04-30T00:21:15;101760.00;;;9.60
5571;BMP180;2808;51.240;6.794;2023-04-30T00:23:44;101757.00;;;9.60
5571;BMP180;2808;51.240;6.794;2023-04-30T00:26:12;101763.00;;;9.60
5571;BMP180;2808;51.240;6.794;2023-04-30T00:28:42;101763.00;;;9.60
5571;BMP180;2808;51.240;6.794;2023-04-30T00:31:11;101762.00;;;9.50
5571;BMP180;2808;51.240;6.794;2023-04-30T00:33:39;101765.00;;;9.40
5571;BMP180;2808;51.240;6.794;2023-04-30T00:36:07;101759.00;;;9.40
5571;BMP180;2808;51.240;6.794;2023-04-30T00:38:34;101767.00;;;9.40
5571;BMP180;2808;51.240;6.794;2023-04-30T00:41:02;101765.00;;;9.30
5571;BMP180;2808;51.240;6.794;2023-04-30T00:43:30;101770.00;;;9.30
5571;BMP180;2808;51.240;6.794;2023-04-30T00:45:59;101771.00;;;9.30
5571;BMP180;2808;51.240;6.794;2023-04-30T00:48:34;101766.00;;;9.40
5571;BMP180;2808;51.240;6.794;2023-04-30T00:51:03;101773.00;;;9.40
5571;BMP180;2808;51.240;6.794;2023-04-30T00:53:31;101769.00;;;9.40
5571;BMP180;2808;51.240;6.794;2023-04-30T00:55:58;101770.00;;;9.40
5571;BMP180;2808;51.240;6.794;2023-04-30T00:58:26;101771.00;;;9.30
5571;BMP180;2808;51.240;6.794;2023-04-30T01:00:54;101773.00;;;9.30
5571;BMP180;2808;51.240;6.794;2023-04-30T01:03:21;101763.00;;;9.30
5571;BMP180;2808;51.240;6.794;2023-04-30T01:05:50;101766.00;;;9.20
5571;BMP180;2808;51.240;6.794;2023-04-30T01:08:20;101765.00;;;9.20
5571;BMP180;2808;51.240;6.794;2023-04-30T01:10:52;101765.00;;;9.20
5571;BMP180;2808;51.240;6.794;2023-04-30T01:13:26;101766.00;;;9.20
5571;BMP180;2808;51.240;6.794;2023-04-30T01:16:01;101757.00;;;9.20
5571;BMP180;2808;51.240;6.794;2023-04-30T01:18:41;101759.00;;;9.10
5571;BMP180;2808;51.240;6.794;2023-04-30T01:21:11;101766.00;;;9.10
5571;BMP180;2808;51.240;6.794;2023-04-30T01:23:53;101760.00;;;9.10
5571;BMP180;2808;51.240;6.794;2023-04-30T01:26:33;101773.00;;;9.10
5571;BMP180;2808;51.240;6.794;2023-04-30T01:29:10;101764.00;;;9.00
5571;BMP180;2808;51.240;6.794;2023-04-30T01:31:42;101762.00;;;9.00
5571;BMP180;2808;51.240;6.794;2023-04-30T01:34:09;101767.00;;;9.00
5571;BMP180;2808;51.240;6.794;2023-04-30T01:36:49;101762.00;;;9.00
5571;BMP180;2808;51.240;6.794;2023-04-30T01:39:29;101756.00;;;9.00
5571;BMP180;2808;51.240;6.794;2023-04-30T01:42:06;101772.00;;;8.90
5571;BMP180;2808;51.240;6.794;2023-04-30T01:44:57;101770.00;;;8.90
5571;BMP180;2808;51.240;6.794;2023-04-30T01:47:33;101760.00;;;8.80
5571;BMP180;2808;51.240;6.794;2023-04-30T01:50:10;101757.00;;;8.90
5571;BMP180;2808;51.240;6.794;2023-04-30T01:52:49;101762.00;;;8.80
5571;BMP180;2808;51.240;6.794;2023-04-30T01:55:33;101763.00;;;8.90
5571;BMP180;2808;51.240;6.794;2023-04-30T01:58:05;101761.00;;;8.80
5571;BMP180;2808;51.240;6.794;2023-04-30T02:00:34;101759.00;;;8.90
5571;BMP180;2808;51.240;6.794;2023-04-30T02:03:02;101759.00;;;8.90
5571;BMP180;2808;51.240;6.794;2023-04-30T02:05:29;101764.00;;;8.90
5571;BMP180;2808;51.240;6.794;2023-04-30T02:07:57;101766.00;;;8.90
5571;BMP180;2808;51.240;6.794;2023-04-30T02:10:25;101764.00;;;8.90
5571;BMP180;2808;51.240;6.794;2023-04-30T02:12:54;101769.00;;;8.90
5571;BMP180;2808;51.240;6.794;2023-04-30T02:15:22;101767.00;;;8.90
5571;BMP180;2808;51.240;6.794;2023-04-30T02:17:54;101765.00;;;8.90
5571;BMP180;2808;51.240;6.794;2023-04-30T02:20:21;101757.00;;;8.80
5571;BMP180;2808;51.240;6.794;2023-04-30T02:22:49;101763.00;;;8.80
5571;BMP180;2808;51.240;6.794;2023-04-30T02:25:18;101767.00;;;8.80
5571;BMP180;2808;51.240;6.794;2023-04-30T02:27:46;101773.00;;;8.80
5571;BMP180;2808;51.240;6.794;2023-04-30T02:30:15;101768.00;;;8.80
5571;BMP180;2808;51.240;6.794;2023-04-30T02:32:44;101766.00;;;8.80
5571;BMP180;2808;51.240;6.794;2023-04-30T02:35:14;101770.00;;;8.70
5571;BMP180;2808;51.240;6.794;2023-04-30T02:37:42;101765.00;;;8.70
5571;BMP180;2808;51.240;6.794;2023-04-30T02:40:10;101769.00;;;8.70
5571;BMP180;2808;51.240;6.794;2023-04-30T02:42:38;101776.00;;;8.60
5571;BMP180;2808;51.240;6.794;2023-04-30T02:45:06;101765.00;;;8.60
5571;BMP180;2808;51.240;6.794;2023-04-30T02:47:34;101764.00;;;8.60
5571;BMP180;2808;51.240;6.794;2023-04-30T02:50:01;101764.00;;;8.50
5571;BMP180;2808;51.240;6.794;2023-04-30T02:52:30;101762.00;;;8.50
5571;BMP180;2808;51.240;6.794;2023-04-30T02:54:58;101759.00;;;8.50
5571;BMP180;2808;51.240;6.794;2023-04-30T02:57:25;101767.00;;;8.40
5571;BMP180;2808;51.240;6.794;2023-04-30T02:59:53;101762.00;;;8.40
5571;BMP180;2808;51.240;6.794;2023-04-30T03:02:20;101755.00;;;8.30
5571;BMP180;2808;51.240;6.794;2023-04-30T03:04:48;101762.00;;;8.30
5571;BMP180;2808;51.240;6.794;2023-04-30T03:07:16;101760.00;;;8.30
5571;BMP180;2808;51.240;6.794;2023-04-30T03:09:46;101759.00;;;8.30
5571;BMP180;2808;51.240;6.794;2023-04-30T03:12:15;101758.00;;;8.30
5571;BMP180;2808;51.240;6.794;2023-04-30T03:14:43;101757.00;;;8.30
5571;BMP180;2808;51.240;6.794;2023-04-30T03:17:10;101767.00;;;8.20
5571;BMP180;2808;51.240;6.794;2023-04-30T03:19:38;101772.00;;;8.20
5571;BMP180;2808;51.240;6.794;2023-04-30T03:22:09;101771.00;;;8.20
5571;BMP180;2808;51.240;6.794;2023-04-30T03:24:37;101762.00;;;8.20
5571;BMP180;2808;51.240;6.794;2023-04-30T03:27:06;101763.00;;;8.20
5571;BMP180;2808;51.240;6.794;2023-04-30T03:29:33;101764.00;;;8.20
5571;BMP180;2808;51.240;6.794;2023-04-30T03:32:01;101762.00;;;8.10
5571;BMP180;2808;51.240;6.794;2023-04-30T03:34:31;101764.00;;;8.10
5571;BMP180;2808;51.240;6.794;2023-04-30T03:37:01;101761.00;;;8.10
5571;BMP180;2808;51.240;6.794;2023-04-30T03:39:29;101756.00;;;8.10
5571;BMP180;2808;51.240;6.794;2023-04-30T03:41:56;101764.00;;;8.00
5571;BMP180;2808;51.240;6.794;2023-04-30T03:44:25;101769.00;;;8.00
5571;BMP180;2808;51.240;6.794;2023-04-30T03:46:53;101762.00;;;8.00
5571;BMP180;2808;51.240;6.794;2023-04-30T03:49:20;101766.00;;;7.90
5571;BMP180;2808;51.240;6.794;2023-04-30T03:52:00;101763.00;;;7.90
5571;BMP180;2808;51.240;6.794;2023-04-30T03:57:30;101761.00;;;7.80
5571;BMP180;2808;51.240;6.794;2023-04-30T04:00:13;101763.00;;;7.80
5571;BMP180;2808;51.240;6.794;2023-04-30T04:02:53;101761.00;;;7.80
5571;BMP180;2808;51.240;6.794;2023-04-30T04:05:27;101770.00;;;7.80
5571;BMP180;2808;51.240;6.794;2023-04-30T04:07:55;101769.00;;;7.70
5571;BMP180;2808;51.240;6.794;2023-04-30T04:10:24;101762.00;;;7.70
5571;BMP180;2808;51.240;6.794;2023-04-30T04:12:52;101770.00;;;7.80
5571;BMP180;2808;51.240;6.794;2023-04-30T04:15:23;101761.00;;;7.80
5571;BMP180;2808;51.240;6.794;2023-04-30T04:18:01;101765.00;;;7.90
5571;BMP180;2808;51.240;6.794;2023-04-30T04:20:29;101759.00;;;7.90
5571;BMP180;2808;51.240;6.794;2023-04-30T04:22:56;101758.00;;;8.00
5571;BMP180;2808;51.240;6.794;2023-04-30T04:25:25;101757.00;;;8.10
5571;BMP180;2808;51.240;6.794;2023-04-30T04:27:52;101767.00;;;8.30
5571;BMP180;2808;51.240;6.794;2023-04-30T04:30:21;101770.00;;;8.40
5571;BMP180;2808;51.240;6.794;2023-04-30T04:32:48;101773.00;;;8.50
5571;BMP180;2808;51.240;6.794;2023-04-30T04:35:18;101768.00;;;8.80
5571;BMP180;2808;51.240;6.794;2023-04-30T04:37:46;101774.00;;;9.00
5571;BMP180;2808;51.240;6.794;2023-04-30T04:40:14;101771.00;;;9.20
5571;BMP180;2808;51.240;6.794;2023-04-30T04:42:41;101777.00;;;9.40
5571;BMP180;2808;51.240;6.794;2023-04-30T04:45:09;101778.00;;;9.50
5571;BMP180;2808;51.240;6.794;2023-04-30T04:47:38;101783.00;;;9.70
5571;BMP180;2808;51.240;6.794;2023-04-30T04:50:07;101787.00;;;9.80
5571;BMP180;2808;51.240;6.794;2023-04-30T04:52:39;101781.00;;;10.00
5571;BMP180;2808;51.240;6.794;2023-04-30T04:55:08;101785.00;;;10.10
5571;BMP180;2808;51.240;6.794;2023-04-30T04:57:37;101788.00;;;10.20
5571;BMP180;2808;51.240;6.794;2023-04-30T05:00:05;101777.00;;;10.40
5571;BMP180;2808;51.240;6.794;2023-04-30T05:02:34;101795.00;;;10.60
5571;BMP180;2808;51.240;6.794;2023-04-30T05:05:04;101798.00;;;10.70
5571;BMP180;2808;51.240;6.794;2023-04-30T05:07:32;101790.00;;;10.80
5571;BMP180;2808;51.240;6.794;2023-04-30T05:10:00;101794.00;;;11.00
5571;BMP180;2808;51.240;6.794;2023-04-30T05:12:27;101795.00;;;11.20
5571;BMP180;2808;51.240;6.794;2023-04-30T05:14:57;101789.00;;;11.40
5571;BMP180;2808;51.240;6.794;2023-04-30T05:17:24;101798.00;;;11.60
5571;BMP180;2808;51.240;6.794;2023-04-30T05:19:52;101794.00;;;11.70
5571;BMP180;2808;51.240;6.794;2023-04-30T05:22:21;101789.00;;;12.10
5571;BMP180;2808;51.240;6.794;2023-04-30T05:24:49;101796.00;;;12.50
5571;BMP180;2808;51.240;6.794;2023-04-30T05:27:18;101801.00;;;12.80
5571;BMP180;2808;51.240;6.794;2023-04-30T05:29:46;101796.00;;;13.00
5571;BMP180;2808;51.240;6.794;2023-04-30T05:32:13;101790.00;;;13.20
5571;BMP180;2808;51.240;6.794;2023-04-30T05:34:40;101794.00;;;13.30
5571;BMP180;2808;51.240;6.794;2023-04-30T05:37:08;101802.00;;;13.30
5571;BMP180;2808;51.240;6.794;2023-04-30T05:39:39;101802.00;;;13.50
5571;BMP180;2808;51.240;6.794;2023-04-30T05:42:06;101808.00;;;13.70
5571;BMP180;2808;51.240;6.794;2023-04-30T05:44:34;101814.00;;;13.70
5571;BMP180;2808;51.240;6.794;2023-04-30T05:47:01;101808.00;;;13.60
5571;BMP180;2808;51.240;6.794;2023-04-30T05:49:29;101808.00;;;13.40
5571;BMP180;2808;51.240;6.794;2023-04-30T05:51:56;101813.00;;;13.00
5571;BMP180;2808;51.240;6.794;2023-04-30T05:54:24;101817.00;;;12.90
5571;BMP180;2808;51.240;6.794;2023-04-30T05:56:53;101818.00;;;13.00
5571;BMP180;2808;51.240;6.794;2023-04-30T05:59:20;101810.00;;;13.50
5571;BMP180;2808;51.240;6.794;2023-04-30T06:01:48;101817.00;;;13.90
5571;BMP180;2808;51.240;6.794;2023-04-30T06:04:15;101814.00;;;14.30
5571;BMP180;2808;51.240;6.794;2023-04-30T06:06:43;101820.00;;;14.60
5571;BMP180;2808;51.240;6.794;2023-04-30T06:09:10;101814.00;;;14.90
5571;BMP180;2808;51.240;6.794;2023-04-30T06:11:38;101822.00;;;15.00
5571;BMP180;2808;51.240;6.794;2023-04-30T06:14:08;101817.00;;;15.40
5571;BMP180;2808;51.240;6.794;2023-04-30T06:16:38;101816.00;;;15.60
5571;BMP180;2808;51.240;6.794;2023-04-30T06:19:06;101818.00;;;15.90
5571;BMP180;2808;51.240;6.794;2023-04-30T06:21:34;101817.00;;;15.90
5571;BMP180;2808;51.240;6.794;2023-04-30T06:24:07;101819.00;;;16.00
5571;BMP180;2808;51.240;6.794;2023-04-30T06:26:35;101814.00;;;16.10
5571;BMP180;2808;51.240;6.794;2023-04-30T06:29:07;101810.00;;;16.20
5571;BMP180;2808;51.240;6.794;2023-04-30T06:31:41;101810.00;;;16.20
5571;BMP180;2808;51.240;6.794;2023-04-30T06:34:14;101805.00;;;16.30
5571;BMP180;2808;51.240;6.794;2023-04-30T06:36:45;101810.00;;;16.30
5571;BMP180;2808;51.240;6.794;2023-04-30T06:41:01;101812.00;;;16.30
5571;BMP180;2808;51.240;6.794;2023-04-30T06:43:01;101812.00;;;16.90
5571;BMP180;2808;51.240;6.794;2023-04-30T06:45:30;101807.00;;;17.20
5571;BMP180;2808;51.240;6.794;2023-04-30T06:47:58;101808.00;;;17.50
5571;BMP180;2808;51.240;6.794;2023-04-30T06:50:25;101801.00;;;17.60
5571;BMP180;2808;51.240;6.794;2023-04-30T06:52:53;101802.00;;;17.40
5571;BMP180;2808;51.240;6.794;2023-04-30T06:55:20;101805.00;;;17.50
5571;BMP180;2808;51.240;6.794;2023-04-30T06:57:48;101802.00;;;17.50
5571;BMP180;2808;51.240;6.794;2023-04-30T07:00:15;101811.00;;;17.30
5571;BMP180;2808;51.240;6.794;2023-04-30T07:02:44;101798.00;;;17.30
5571;BMP180;2808;51.240;6.794;2023-04-30T07:05:12;101813.00;;;17.60
5571;BMP180;2808;51.240;6.794;2023-04-30T07:07:41;101804.00;;;17.80
5571;BMP180;2808;51.240;6.794;2023-04-30T07:10:08;101799.00;;;18.20
5571;BMP180;2808;51.240;6.794;2023-04-30T07:12:36;101807.00;;;18.20
5571;BMP180;2808;51.240;6.794;2023-04-30T07:15:04;101805.00;;;18.40
5571;BMP180;2808;51.240;6.794;2023-04-30T07:17:32;101804.00;;;18.30
5571;BMP180;2808;51.240;6.794;2023-04-30T07:20:01;101797.00;;;17.90
5571;BMP180;2808;51.240;6.794;2023-04-30T07:22:29;101797.00;;;18.10
5571;BMP180;2808;51.240;6.794;2023-04-30T07:24:57;101798.00;;;18.70
5571;BMP180;2808;51.240;6.794;2023-04-30T07:27:25;101799.00;;;19.20
5571;BMP180;2808;51.240;6.794;2023-04-30T07:29:53;101791.00;;;19.20
5571;BMP180;2808;51.240;6.794;2023-04-30T07:32:21;101793.00;;;19.50
5571;BMP180;2808;51.240;6.794;2023-04-30T07:34:50;101793.00;;;19.80
5571;BMP180;2808;51.240;6.794;2023-04-30T07:37:19;101798.00;;;20.10
5571;BMP180;2808;51.240;6.794;2023-04-30T07:39:47;101796.00;;;20.10
5571;BMP180;2808;51.240;6.794;2023-04-30T07:42:16;101798.00;;;19.80
5571;BMP180;2808;51.240;6.794;2023-04-30T07:44:45;101801.00;;;19.70
5571;BMP180;2808;51.240;6.794;2023-04-30T07:47:14;101809.00;;;19.80
5571;BMP180;2808;51.240;6.794;2023-04-30T07:49:43;101804.00;;;19.80
5571;BMP180;2808;51.240;6.794;2023-04-30T07:52:11;101795.00;;;19.20
5571;BMP180;2808;51.240;6.794;2023-04-30T07:54:41;101804.00;;;19.20
5571;BMP180;2808;51.240;6.794;2023-04-30T07:57:08;101803.00;;;19.40
5571;BMP180;2808;51.240;6.794;2023-04-30T07:59:36;101799.00;;;19.60
5571;BMP180;2808;51.240;6.794;2023-04-30T08:02:03;101797.00;;;19.60
5571;BMP180;2808;51.240;6.794;2023-04-30T08:04:33;101802.00;;;19.70
5571;BMP180;2808;51.240;6.794;2023-04-30T08:07:00;101794.00;;;20.00
5571;BMP180;2808;51.240;6.794;2023-04-30T08:09:29;101799.00;;;20.20
5571;BMP180;2808;51.240;6.794;2023-04-30T08:11:58;101794.00;;;20.40
5571;BMP180;2808;51.240;6.794;2023-04-30T08:14:27;101806.00;;;20.50
5571;BMP180;2808;51.240;6.794;2023-04-30T08:16:54;101800.00;;;20.20
5571;BMP180;2808;51.240;6.794;2023-04-30T08:19:23;101804.00;;;19.70
5571;BMP180;2808;51.240;6.794;2023-04-30T08:21:50;101804.00;;;19.60
5571;BMP180;2808;51.240;6.794;2023-04-30T08:24:18;101809.00;;;19.90
5571;BMP180;2808;51.240;6.794;2023-04-30T08:26:45;101810.00;;;20.10
5571;BMP180;2808;51.240;6.794;2023-04-30T08:29:17;101800.00;;;19.80
5571;BMP180;2808;51.240;6.794;2023-04-30T08:31:45;101808.00;;;19.20
5571;BMP180;2808;51.240;6.794;2023-04-30T08:34:12;101806.00;;;18.80
5571;BMP180;2808;51.240;6.794;2023-04-30T08:36:40;101800.00;;;18.90
5571;BMP180;2808;51.240;6.794;2023-04-30T08:39:07;101801.00;;;19.00
5571;BMP180;2808;51.240;6.794;2023-04-30T08:41:36;101813.00;;;18.80
5571;BMP180;2808;51.240;6.794;2023-04-30T08:44:10;101805.00;;;18.30
5571;BMP180;2808;51.240;6.794;2023-04-30T08:46:43;101806.00;;;18.60
5571;BMP180;2808;51.240;6.794;2023-04-30T08:49:11;101803.00;;;19.20
5571;BMP180;2808;51.240;6.794;2023-04-30T08:51:39;101813.00;;;19.20
5571;BMP180;2808;51.240;6.794;2023-04-30T08:54:10;101803.00;;;19.30
5571;BMP180;2808;51.240;6.794;2023-04-30T08:56:38;101798.00;;;19.30
5571;BMP180;2808;51.240;6.794;2023-04-30T08:59:06;101804.00;;;19.20
5571;BMP180;2808;51.240;6.794;2023-04-30T09:01:34;101793.00;;;19.30
5571;BMP180;2808;51.240;6.794;2023-04-30T09:04:05;101797.00;;;19.10
5571;BMP180;2808;51.240;6.794;2023-04-30T09:06:36;101803.00;;;19.00
5571;BMP180;2808;51.240;6.794;2023-04-30T09:09:10;101791.00;;;19.00
5571;BMP180;2808;51.240;6.794;2023-04-30T09:11:38;101808.00;;;19.20
5571;BMP180;2808;51.240;6.794;2023-04-30T09:14:06;101803.00;;;18.90
5571;BMP180;2808;51.240;6.794;2023-04-30T09:16:48;101793.00;;;18.80
5571;BMP180;2808;51.240;6.794;2023-04-30T09:19:27;101797.00;;;18.70
5571;BMP180;2808;51.240;6.794;2023-04-30T09:21:58;101800.00;;;18.20
5571;BMP180;2808;51.240;6.794;2023-04-30T09:24:26;101790.00;;;17.60
5571;BMP180;2808;51.240;6.794;2023-04-30T09:27:16;101790.00;;;17.60
5571;BMP180;2808;51.240;6.794;2023-04-30T09:29:43;101794.00;;;17.60
5571;BMP180;2808;51.240;6.794;2023-04-30T09:32:11;101787.00;;;17.50
5571;BMP180;2808;51.240;6.794;2023-04-30T09:34:40;101787.00;;;17.50
5571;BMP180;2808;51.240;6.794;2023-04-30T09:37:08;101784.00;;;17.20
5571;BMP180;2808;51.240;6.794;2023-04-30T09:39:49;101783.00;;;17.10
5571;BMP180;2808;51.240;6.794;2023-04-30T09:42:18;101769.00;;;17.30
5571;BMP180;2808;51.240;6.794;2023-04-30T09:44:47;101771.00;;;17.50
5571;BMP180;2808;51.240;6.794;2023-04-30T09:47:20;101760.00;;;17.60
5571;BMP180;2808;51.240;6.794;2023-04-30T09:49:50;101766.00;;;17.50
5571;BMP180;2808;51.240;6.794;2023-04-30T09:52:19;101771.00;;;17.40
5571;BMP180;2808;51.240;6.794;2023-04-30T09:54:46;101765.00;;;17.00
5571;BMP180;2808;51.240;6.794;2023-04-30T09:57:15;101758.00;;;17.10
5571;BMP180;2808;51.240;6.794;2023-04-30T09:59:45;101757.00;;;17.60
5571;BMP180;2808;51.240;6.794;2023-04-30T10:02:18;101757.00;;;17.80
5571;BMP180;2808;51.240;6.794;2023-04-30T10:04:53;101751.00;;;17.90
5571;BMP180;2808;51.240;6.794;2023-04-30T10:07:24;101765.00;;;18.00
5571;BMP180;2808;51.240;6.794;2023-04-30T10:10:03;101762.00;;;17.60
5571;BMP180;2808;51.240;6.794;2023-04-30T10:12:38;101757.00;;;17.20
5571;BMP180;2808;51.240;6.794;2023-04-30T10:15:12;101755.00;;;17.10
5571;BMP180;2808;51.240;6.794;2023-04-30T10:17:41;101756.00;;;17.00
5571;BMP180;2808;51.240;6.794;2023-04-30T10:20:12;101756.00;;;17.00
5571;BMP180;2808;51.240;6.794;2023-04-30T10:22:42;101755.00;;;17.00
5571;BMP180;2808;51.240;6.794;2023-04-30T10:25:12;101743.00;;;17.10
5571;BMP180;2808;51.240;6.794;2023-04-30T10:27:42;101737.00;;;17.10
5571;BMP180;2808;51.240;6.794;2023-04-30T10:30:10;101745.00;;;17.10
5571;BMP180;2808;51.240;6.794;2023-04-30T10:32:45;101744.00;;;17.20
5571;BMP180;2808;51.240;6.794;2023-04-30T10:35:25;101737.00;;;17.10
5571;BMP180;2808;51.240;6.794;2023-04-30T10:37:58;101723.00;;;17.20
5571;BMP180;2808;51.240;6.794;2023-04-30T10:40:35;101745.00;;;17.30
5571;BMP180;2808;51.240;6.794;2023-04-30T10:43:03;101734.00;;;17.20
5571;BMP180;2808;51.240;6.794;2023-04-30T10:45:40;101729.00;;;17.30
5571;BMP180;2808;51.240;6.794;2023-04-30T10:48:09;101725.00;;;17.10
5571;BMP180;2808;51.240;6.794;2023-04-30T10:50:43;101729.00;;;17.10
5571;BMP180;2808;51.240;6.794;2023-04-30T10:53:13;101715.00;;;17.00
5571;BMP180;2808;51.240;6.794;2023-04-30T10:55:52;101717.00;;;17.10
5571;BMP180;2808;51.240;6.794;2023-04-30T10:58:27;101710.00;;;16.90
5571;BMP180;2808;51.240;6.794;2023-04-30T11:01:03;101703.00;;;16.90
5571;BMP180;2808;51.240;6.794;2023-04-30T11:03:34;101700.00;;;16.90
5571;BMP180;2808;51.240;6.794;2023-04-30T11:06:11;101702.00;;;16.90
5571;BMP180;2808;51.240;6.794;2023-04-30T11:08:42;101707.00;;;17.00
5571;BMP180;2808;51.240;6.794;2023-04-30T11:11:11;101706.00;;;17.00
5571;BMP180;2808;51.240;6.794;2023-04-30T11:13:41;101700.00;;;16.90
5571;BMP180;2808;51.240;6.794;2023-04-30T11:16:10;101700.00;;;16.90
5571;BMP180;2808;51.240;6.794;2023-04-30T11:18:42;101686.00;;;16.90
5571;BMP180;2808;51.240;6.794;2023-04-30T11:21:12;101689.00;;;16.90
5571;BMP180;2808;51.240;6.794;2023-04-30T11:23:41;101686.00;;;16.90
5571;BMP180;2808;51.240;6.794;2023-04-30T11:26:09;101673.00;;;16.90
5571;BMP180;2808;51.240;6.794;2023-04-30T11:28:37;101681.00;;;17.10
5571;BMP180;2808;51.240;6.794;2023-04-30T11:31:05;101673.00;;;17.20
5571;BMP180;2808;51.240;6.794;2023-04-30T11:33:33;101689.00;;;17.30
5571;BMP180;2808;51.240;6.794;2023-04-30T11:36:02;101690.00;;;17.30
5571;BMP180;2808;51.240;6.794;2023-04-30T11:38:34;101671.00;;;17.30
5571;BMP180;2808;51.240;6.794;2023-04-30T11:41:01;101675.00;;;17.10
5571;BMP180;2808;51.240;6.794;2023-04-30T11:43:30;101681.00;;;17.10
5571;BMP180;2808;51.240;6.794;2023-04-30T11:46:04;101671.00;;;17.10
5571;BMP180;2808;51.240;6.794;2023-04-30T11:48:33;101672.00;;;17.10
5571;BMP180;2808;51.240;6.794;2023-04-30T11:51:24;101687.00;;;17.00
5571;BMP180;2808;51.240;6.794;2023-04-30T11:53:54;101673.00;;;17.10
5571;BMP180;2808;51.240;6.794;2023-04-30T11:56:23;101667.00;;;17.10
5571;BMP180;2808;51.240;6.794;2023-04-30T11:58:53;101664.00;;;17.20
5571;BMP180;2808;51.240;6.794;2023-04-30T12:01:21;101668.00;;;17.40
5571;BMP180;2808;51.240;6.794;2023-04-30T12:03:56;101668.00;;;17.40
5571;BMP180;2808;51.240;6.794;2023-04-30T12:06:27;101654.00;;;17.30
5571;BMP180;2808;51.240;6.794;2023-04-30T12:08:58;101654.00;;;17.30
5571;BMP180;2808;51.240;6.794;2023-04-30T12:11:27;101643.00;;;17.30
5571;BMP180;2808;51.240;6.794;2023-04-30T12:14:02;101642.00;;;17.10
5571;BMP180;2808;51.240;6.794;2023-04-30T12:16:40;101647.00;;;17.30
5571;BMP180;2808;51.240;6.794;2023-04-30T12:19:14;101633.00;;;17.40
5571;BMP180;2808;51.240;6.794;2023-04-30T12:22:21;101637.00;;;17.50
5571;BMP180;2808;51.240;6.794;2023-04-30T12:25:22;101642.00;;;17.50
5571;BMP180;2808;51.240;6.794;2023-04-30T12:27:54;101642.00;;;17.40
5571;BMP180;2808;51.240;6.794;2023-04-30T12:30:27;101631.00;;;17.20
5571;BMP180;2808;51.240;6.794;2023-04-30T12:32:57;101629.00;;;17.30
5571;BMP180;2808;51.240;6.794;2023-04-30T12:35:28;101639.00;;;17.40
5571;BMP180;2808;51.240;6.794;2023-04-30T12:38:02;101626.00;;;17.40
5571;BMP180;2808;51.240;6.794;2023-04-30T12:40:33;101622.00;;;17.30
5571;BMP180;2808;51.240;6.794;2023-04-30T12:43:02;101630.00;;;17.40
5571;BMP180;2808;51.240;6.794;2023-04-30T12:45:42;101633.00;;;17.20
5571;BMP180;2808;51.240;6.794;2023-04-30T12:48:10;101632.00;;;17.20
5571;BMP180;2808;51.240;6.794;2023-04-30T12:50:38;101625.00;;;17.20
5571;BMP180;2808;51.240;6.794;2023-04-30T12:53:06;101619.00;;;17.30
5571;BMP180;2808;51.240;6.794;2023-04-30T12:55:35;101631.00;;;17.20
5571;BMP180;2808;51.240;6.794;2023-04-30T12:58:06;101623.00;;;17.20
5571;BMP180;2808;51.240;6.794;2023-04-30T13:00:43;101613.00;;;17.20
5571;BMP180;2808;51.240;6.794;2023-04-30T13:03:11;101614.00;;;17.30
5571;BMP180;2808;51.240;6.794;2023-04-30T13:05:41;101625.00;;;17.50
5571;BMP180;2808;51.240;6.794;2023-04-30T13:08:09;101594.00;;;17.40
5571;BMP180;2808;51.240;6.794;2023-04-30T13:10:38;101601.00;;;17.40
5571;BMP180;2808;51.240;6.794;2023-04-30T13:13:06;101604.00;;;17.30
5571;BMP180;2808;51.240;6.794;2023-04-30T13:15:34;101593.00;;;17.40
5571;BMP180;2808;51.240;6.794;2023-04-30T13:18:01;101597.00;;;17.40
5571;BMP180;2808;51.240;6.794;2023-04-30T13:20:32;101594.00;;;17.50
5571;BMP180;2808;51.240;6.794;2023-04-30T13:22:59;101593.00;;;17.50
5571;BMP180;2808;51.240;6.794;2023-04-30T13:25:27;101590.00;;;17.50
5571;BMP180;2808;51.240;6.794;2023-04-30T13:27:56;101593.00;;;17.40
5571;BMP180;2808;51.240;6.794;2023-04-30T13:30:23;101590.00;;;17.40
5571;BMP180;2808;51.240;6.794;2023-04-30T13:32:51;101590.00;;;17.40
5571;BMP180;2808;51.240;6.794;2023-04-30T13:35:19;101585.00;;;17.30
5571;BMP180;2808;51.240;6.794;2023-04-30T13:37:50;101589.00;;;17.40
5571;BMP180;2808;51.240;6.794;2023-04-30T13:40:19;101584.00;;;17.50
5571;BMP180;2808;51.240;6.794;2023-04-30T13:42:47;101572.00;;;17.40
5571;BMP180;2808;51.240;6.794;2023-04-30T13:45:16;101581.00;;;17.50
5571;BMP180;2808;51.240;6.794;2023-04-30T13:47:44;101569.00;;;17.50
5571;BMP180;2808;51.240;6.794;2023-04-30T13:50:12;101566.00;;;17.50
5571;BMP180;2808;51.240;6.794;2023-04-30T13:52:39;101572.00;;;17.50
5571;BMP180;2808;51.240;6.794;2023-04-30T13:55:08;101556.00;;;17.50
5571;BMP180;2808;51.240;6.794;2023-04-30T13:57:35;101574.00;;;17.60
5571;BMP180;2808;51.240;6.794;2023-04-30T14:00:06;101563.00;;;17.60
5571;BMP180;2808;51.240;6.794;2023-04-30T14:02:35;101570.00;;;17.60
5571;BMP180;2808;51.240;6.794;2023-04-30T14:05:03;101558.00;;;17.40
5571;BMP180;2808;51.240;6.794;2023-04-30T14:07:33;101556.00;;;17.40
5571;BMP180;2808;51.240;6.794;2023-04-30T14:10:01;101556.00;;;17.40
5571;BMP180;2808;51.240;6.794;2023-04-30T14:12:29;101548.00;;;17.30
5571;BMP180;2808;51.240;6.794;2023-04-30T14:14:56;101543.00;;;17.40
5571;BMP180;2808;51.240;6.794;2023-04-30T14:17:26;101549.00;;;17.40
5571;BMP180;2808;51.240;6.794;2023-04-30T14:19:56;101536.00;;;17.40
5571;BMP180;2808;51.240;6.794;2023-04-30T14:22:24;101540.00;;;17.50
5571;BMP180;2808;51.240;6.794;2023-04-30T14:24:52;101526.00;;;17.60
5571;BMP180;2808;51.240;6.794;2023-04-30T14:27:20;101528.00;;;17.70
5571;BMP180;2808;51.240;6.794;2023-04-30T14:29:48;101520.00;;;17.60
5571;BMP180;2808;51.240;6.794;2023-04-30T14:32:16;101522.00;;;17.70
5571;BMP180;2808;51.240;6.794;2023-04-30T14:34:44;101545.00;;;17.70
5571;BMP180;2808;51.240;6.794;2023-04-30T14:37:13;101513.00;;;17.70
5571;BMP180;2808;51.240;6.794;2023-04-30T14:39:41;101519.00;;;17.70
5571;BMP180;2808;51.240;6.794;2023-04-30T14:42:10;101507.00;;;17.70
5571;BMP180;2808;51.240;6.794;2023-04-30T14:44:38;101517.00;;;17.70
5571;BMP180;2808;51.240;6.794;2023-04-30T14:47:06;101508.00;;;17.80